createdAt,value
2023-01-11T00:00:10.616Z,13.63
2023-01-11T00:02:44.267Z,17.77
2023-01-11T00:05:14.113Z,17.97
2023-01-11T00:07:42.050Z,12.50
2023-01-11T00:10:11.891Z,12.57
2023-01-11T00:12:39.526Z,13.65
2023-01-11T00:15:07.552Z,18.33
2023-01-11T00:17:35.090Z,11.90
2023-01-11T00:20:02.846Z,23.98
2023-01-11T00:22:30.677Z,15.10
2023-01-11T00:24:58.172Z,11.40
2023-01-11T00:27:28.898Z,14.98
2023-01-11T00:29:56.701Z,15.90
2023-01-11T00:32:24.411Z,12.02
2023-01-11T00:34:52.204Z,9.27
2023-01-11T00:37:20.054Z,13.10
2023-01-11T00:39:47.616Z,17.27
2023-01-11T00:42:32.677Z,22.57
2023-01-11T00:45:18.897Z,15.88
2023-01-11T00:47:58.467Z,11.73
2023-01-11T00:50:26.753Z,19.88
2023-01-11T00:53:03.171Z,17.73
2023-01-11T00:55:31.956Z,15.37
2023-01-11T00:57:59.984Z,18.40
2023-01-11T01:00:29.834Z,15.48
2023-01-11T01:02:57.506Z,12.35
2023-01-11T01:05:25.142Z,12.77
2023-01-11T01:07:52.808Z,16.13
2023-01-11T01:10:20.822Z,12.43
2023-01-11T01:13:06.446Z,16.40
2023-01-11T01:15:35.380Z,15.52
2023-01-11T01:18:05.080Z,17.23
2023-01-11T01:20:33.178Z,15.60
2023-01-11T01:23:01.014Z,17.05
2023-01-11T01:25:29.047Z,13.13
2023-01-11T01:27:56.657Z,16.88
2023-01-11T01:30:24.196Z,17.13
2023-01-11T01:32:53.309Z,13.60
2023-01-11T01:35:20.939Z,12.18
2023-01-11T01:37:48.468Z,15.35
2023-01-11T01:40:16.066Z,19.42
2023-01-11T01:42:43.849Z,15.00
2023-01-11T01:45:20.352Z,18.13
2023-01-11T01:47:50.147Z,14.85
2023-01-11T01:50:21.791Z,19.33
2023-01-11T01:52:51.154Z,15.90
2023-01-11T01:55:22.126Z,16.17
2023-01-11T01:57:53.637Z,14.33
2023-01-11T02:00:21.614Z,12.75
2023-01-11T02:02:49.596Z,16.73
2023-01-11T02:05:18.438Z,14.25
2023-01-11T02:07:47.842Z,12.15
2023-01-11T02:10:16.688Z,16.47
2023-01-11T02:12:47.833Z,10.10
2023-01-11T02:15:15.877Z,22.90
2023-01-11T02:17:43.562Z,16.27
2023-01-11T02:20:38.485Z,19.70
2023-01-11T02:23:26.900Z,15.00
2023-01-11T02:26:11.521Z,15.45
2023-01-11T02:28:42.663Z,16.83
2023-01-11T02:31:12.850Z,15.88
2023-01-11T02:33:45.382Z,10.38
2023-01-11T02:36:18.303Z,13.87
2023-01-11T02:38:48.214Z,17.42
2023-01-11T02:41:20.169Z,12.57
2023-01-11T02:44:07.789Z,15.82
2023-01-11T02:46:42.741Z,18.60
2023-01-11T02:49:12.774Z,8.27
2023-01-11T02:51:42.232Z,11.32
2023-01-11T02:54:10.986Z,13.57
2023-01-11T02:56:39.791Z,23.23
2023-01-11T02:59:10.090Z,13.32
2023-01-11T03:01:44.726Z,11.30
2023-01-11T03:04:22.947Z,18.30
2023-01-11T03:06:51.862Z,20.85
2023-01-11T03:09:22.767Z,21.05
2023-01-11T03:12:20.833Z,14.38
2023-01-11T03:14:52.813Z,18.43
2023-01-11T03:17:27.158Z,14.23
2023-01-11T03:19:55.598Z,11.55
2023-01-11T03:22:26.786Z,18.33
2023-01-11T03:24:58.851Z,20.75
2023-01-11T03:27:32.378Z,13.53
2023-01-11T03:30:04.319Z,13.23
2023-01-11T03:32:35.712Z,18.73
2023-01-11T03:35:07.677Z,14.18
2023-01-11T03:37:37.980Z,22.83
2023-01-11T03:40:09.570Z,14.63
2023-01-11T03:42:59.235Z,15.68
2023-01-11T03:45:29.499Z,14.38
2023-01-11T03:47:58.007Z,18.83
2023-01-11T03:50:33.185Z,19.35
2023-01-11T03:53:05.452Z,15.40
2023-01-11T03:55:35.964Z,19.63
2023-01-11T03:58:03.688Z,17.27
2023-01-11T04:00:33.471Z,14.88
2023-01-11T04:03:01.513Z,21.85
2023-01-11T04:05:29.337Z,15.50
2023-01-11T04:07:56.958Z,12.75
2023-01-11T04:10:24.614Z,13.38
2023-01-11T04:12:52.204Z,18.25
2023-01-11T04:15:19.831Z,11.27
2023-01-11T04:17:48.801Z,11.60
2023-01-11T04:20:16.443Z,19.73
2023-01-11T04:22:44.047Z,7.90
2023-01-11T04:25:11.646Z,9.98
2023-01-11T04:27:39.200Z,12.32
2023-01-11T04:30:07.172Z,16.07
2023-01-11T04:32:35.065Z,8.05
2023-01-11T04:35:04.090Z,13.52
2023-01-11T04:37:31.589Z,15.55
2023-01-11T04:39:59.248Z,17.25
2023-01-11T04:42:25.965Z,12.77
2023-01-11T04:44:53.694Z,9.98
2023-01-11T04:47:22.176Z,12.43
2023-01-11T04:49:49.955Z,10.77
2023-01-11T04:52:19.655Z,6.00
2023-01-11T04:54:52.656Z,7.90
2023-01-11T04:57:20.194Z,6.75
2023-01-11T04:59:47.786Z,5.95
2023-01-11T05:02:15.389Z,11.05
2023-01-11T05:04:42.925Z,6.13
2023-01-11T05:07:10.560Z,6.43
2023-01-11T05:09:40.862Z,8.75
2023-01-11T05:12:08.388Z,9.63
2023-01-11T05:14:35.879Z,12.32
2023-01-11T05:17:03.562Z,6.60
2023-01-11T05:19:31.110Z,8.07
2023-01-11T05:21:58.663Z,4.90
2023-01-11T05:24:26.933Z,9.95
2023-01-11T05:26:56.629Z,8.18
2023-01-11T05:29:24.141Z,7.38
2023-01-11T05:31:52.072Z,6.37
2023-01-11T05:34:19.780Z,9.15
2023-01-11T05:36:48.600Z,5.55
2023-01-11T05:39:16.366Z,10.95
2023-01-11T05:41:44.081Z,7.70
2023-01-11T05:44:31.183Z,4.53
2023-01-11T05:46:58.861Z,6.97
2023-01-11T05:49:26.849Z,8.63
2023-01-11T05:51:54.585Z,7.68
2023-01-11T05:54:22.385Z,7.85
2023-01-11T05:56:49.893Z,3.87
2023-01-11T05:59:18.968Z,6.70
2023-01-11T06:01:46.569Z,4.80
2023-01-11T06:04:14.528Z,9.82
2023-01-11T06:06:42.517Z,5.38
2023-01-11T06:09:11.469Z,6.47
2023-01-11T06:11:39.204Z,8.13
2023-01-11T06:14:06.802Z,9.95
2023-01-11T06:16:35.888Z,7.00
2023-01-11T06:19:03.492Z,6.22
2023-01-11T06:21:31.209Z,5.83
2023-01-11T06:23:58.847Z,6.88
2023-01-11T06:26:26.787Z,7.43
2023-01-11T06:28:54.638Z,3.05
2023-01-11T06:31:22.247Z,8.38
2023-01-11T06:33:51.331Z,7.57
2023-01-11T06:36:19.023Z,4.15
2023-01-11T06:38:46.809Z,5.55
2023-01-11T06:41:14.509Z,7.38
2023-01-11T06:43:42.542Z,4.65
2023-01-11T06:46:13.577Z,10.60
2023-01-11T06:48:41.105Z,4.80
2023-01-11T06:51:20.233Z,6.97
2023-01-11T06:53:47.870Z,8.70
2023-01-11T06:56:17.414Z,4.53
2023-01-11T06:58:47.582Z,5.83
2023-01-11T07:01:16.156Z,5.13
2023-01-11T07:03:45.326Z,3.42
2023-01-11T07:06:14.985Z,8.70
2023-01-11T07:08:42.588Z,7.88
2023-01-11T07:11:10.756Z,9.17
2023-01-11T07:13:38.396Z,7.00
2023-01-11T07:16:06.164Z,7.40
2023-01-11T07:18:33.822Z,12.15
2023-01-11T07:21:02.564Z,11.68
2023-01-11T07:23:31.438Z,9.90
2023-01-11T07:25:59.152Z,8.73
2023-01-11T07:28:28.586Z,6.65
2023-01-11T07:30:59.213Z,6.03
2023-01-11T07:33:27.192Z,6.28
2023-01-11T07:35:55.076Z,10.20
2023-01-11T07:38:22.987Z,8.00
2023-01-11T07:40:52.325Z,9.02
2023-01-11T07:43:20.111Z,12.13
2023-01-11T07:45:49.925Z,9.23
2023-01-11T07:48:20.972Z,9.13
2023-01-11T07:50:49.143Z,7.30
2023-01-11T07:53:16.813Z,13.15
2023-01-11T07:55:44.543Z,6.32
2023-01-11T07:58:14.071Z,8.52
2023-01-11T08:00:41.938Z,9.40
2023-01-11T08:03:10.013Z,12.63
2023-01-11T08:05:37.874Z,11.30
2023-01-11T08:08:05.753Z,10.07
2023-01-11T08:10:34.271Z,12.00
2023-01-11T08:13:20.671Z,9.97
2023-01-11T08:15:49.734Z,14.90
2023-01-11T08:18:17.525Z,10.57
2023-01-11T08:20:45.728Z,8.20
2023-01-11T08:23:13.527Z,12.88
2023-01-11T08:25:41.021Z,10.00
2023-01-11T08:28:09.027Z,10.48
2023-01-11T08:30:37.402Z,7.55
2023-01-11T08:33:06.410Z,5.75
2023-01-11T08:35:38.272Z,11.77
2023-01-11T08:38:05.973Z,9.03
2023-01-11T08:40:33.519Z,11.43
2023-01-11T08:43:01.203Z,14.68
2023-01-11T08:45:39.593Z,14.48
2023-01-11T08:48:10.218Z,9.88
2023-01-11T08:50:37.864Z,16.43
2023-01-11T08:53:07.300Z,12.90
2023-01-11T08:55:41.820Z,11.68
2023-01-11T08:58:09.473Z,16.25
2023-01-11T09:00:37.127Z,9.05
2023-01-11T09:03:04.886Z,8.50
2023-01-11T09:05:33.773Z,12.10
2023-01-11T09:08:01.337Z,15.75
2023-01-11T09:10:30.350Z,15.02
2023-01-11T09:12:57.934Z,10.07
2023-01-11T09:15:25.760Z,12.97
2023-01-11T09:17:53.496Z,12.05
2023-01-11T09:20:21.500Z,11.80
2023-01-11T09:22:52.925Z,14.38
2023-01-11T09:25:20.877Z,15.68
2023-01-11T09:27:48.854Z,9.53
2023-01-11T09:30:17.502Z,14.48
2023-01-11T09:32:46.122Z,9.07
2023-01-11T09:35:15.512Z,8.30
2023-01-11T09:37:45.996Z,7.47
2023-01-11T09:40:19.084Z,9.93
2023-01-11T09:42:49.537Z,13.20
2023-01-11T09:45:19.252Z,15.60
2023-01-11T09:47:51.097Z,10.15
2023-01-11T09:50:21.888Z,11.68
2023-01-11T09:52:52.820Z,12.57
2023-01-11T09:55:25.510Z,12.43
2023-01-11T09:57:59.688Z,8.95
2023-01-11T10:00:29.904Z,9.40
2023-01-11T10:03:15.253Z,8.43
2023-01-11T10:05:51.371Z,8.77
2023-01-11T10:18:32.461Z,5.38
2023-01-11T10:18:39.289Z,4.53
2023-01-11T10:20:12.084Z,3.87
2023-01-11T10:22:44.940Z,8.90
2023-01-11T10:25:19.002Z,7.00
2023-01-11T10:27:54.094Z,6.75
2023-01-11T10:30:41.769Z,11.63
2023-01-11T10:33:24.924Z,8.83
2023-01-11T10:36:10.572Z,9.20
2023-01-11T10:38:54.535Z,8.30
2023-01-11T10:41:33.956Z,9.52
2023-01-11T10:44:05.960Z,10.55
2023-01-11T10:46:34.887Z,9.83
2023-01-11T10:49:11.562Z,9.27
2023-01-11T10:51:44.162Z,6.18
2023-01-11T10:54:16.507Z,10.02
2023-01-11T10:57:02.321Z,5.80
2023-01-11T10:59:48.601Z,8.93
2023-01-11T11:02:26.407Z,14.65
2023-01-11T11:05:08.602Z,7.30
2023-01-11T11:07:39.477Z,6.68
2023-01-11T11:10:12.339Z,8.75
2023-01-11T11:12:43.292Z,7.07
2023-01-11T11:15:13.491Z,7.13
2023-01-11T11:17:46.452Z,9.18
2023-01-11T11:20:14.847Z,10.20
2023-01-11T11:22:42.883Z,10.95
2023-01-11T11:25:15.405Z,8.27
2023-01-11T11:27:45.213Z,10.80
2023-01-11T11:30:13.738Z,8.90
2023-01-11T11:32:46.605Z,11.07
2023-01-11T11:35:30.511Z,13.88
2023-01-11T11:37:58.148Z,6.63
2023-01-11T11:40:31.924Z,9.23
2023-01-11T11:43:13.250Z,13.02
2023-01-11T11:45:51.062Z,9.23
2023-01-11T11:48:20.146Z,5.30
2023-01-11T11:50:48.187Z,10.00
2023-01-11T11:53:28.145Z,6.03
2023-01-11T11:55:55.965Z,11.75
2023-01-11T11:58:24.851Z,8.50
2023-01-11T12:00:53.392Z,5.65
2023-01-11T12:03:25.770Z,7.93
2023-01-11T12:05:57.723Z,7.15
2023-01-11T12:08:26.060Z,5.35
2023-01-11T12:10:57.396Z,8.02
2023-01-11T12:13:30.074Z,8.20
2023-01-11T12:15:58.341Z,8.40
2023-01-11T12:18:31.413Z,8.77
2023-01-11T12:21:09.509Z,10.05
2023-01-11T12:23:37.114Z,10.55
2023-01-11T12:26:09.635Z,5.30
2023-01-11T12:28:47.206Z,6.53
2023-01-11T12:31:19.775Z,10.75
2023-01-11T12:33:52.895Z,5.28
2023-01-11T12:36:23.654Z,6.18
2023-01-11T12:38:56.470Z,9.05
2023-01-11T12:41:47.793Z,12.43
2023-01-11T12:44:18.352Z,9.32
2023-01-11T12:46:55.002Z,6.53
2023-01-11T12:49:35.481Z,4.50
2023-01-11T12:52:11.865Z,7.53
2023-01-11T12:54:52.648Z,9.27
2023-01-11T12:57:27.983Z,7.03
2023-01-11T13:00:10.243Z,12.70
2023-01-11T13:02:56.611Z,6.80
2023-01-11T13:05:27.989Z,5.75
2023-01-11T13:08:02.236Z,3.77
2023-01-11T13:10:34.278Z,7.85
2023-01-11T13:13:06.146Z,4.45
2023-01-11T13:15:42.116Z,4.22
2023-01-11T13:18:13.400Z,4.65
2023-01-11T13:20:59.933Z,4.37
2023-01-11T13:23:34.442Z,3.75
2023-01-11T13:26:06.596Z,4.45
2023-01-11T13:28:36.785Z,2.95
2023-01-11T13:31:05.763Z,3.95
2023-01-11T13:33:33.868Z,4.83
2023-01-11T13:36:09.821Z,3.90
2023-01-11T13:38:46.077Z,5.72
2023-01-11T13:41:17.401Z,4.10
2023-01-11T13:43:46.954Z,5.85
2023-01-11T13:46:17.968Z,5.07
2023-01-11T13:48:47.137Z,3.05
2023-01-11T13:51:19.775Z,6.70
2023-01-11T13:53:52.403Z,6.18
2023-01-11T13:56:22.406Z,5.70
2023-01-11T13:58:52.913Z,6.10
2023-01-11T14:01:22.059Z,6.90
2023-01-11T14:03:52.515Z,12.50
2023-01-11T14:06:27.889Z,5.97
2023-01-11T14:09:04.026Z,10.07
2023-01-11T14:11:36.435Z,11.10
2023-01-11T14:14:18.496Z,10.07
2023-01-11T14:16:53.604Z,14.60
2023-01-11T14:19:25.333Z,10.55
2023-01-11T14:22:03.273Z,20.15
2023-01-11T14:24:33.194Z,6.57
2023-01-11T14:27:20.924Z,5.28
2023-01-11T14:29:59.236Z,3.97
2023-01-11T14:32:38.314Z,10.55
2023-01-11T14:35:25.248Z,7.32
2023-01-11T14:38:07.647Z,7.63
2023-01-11T14:40:41.467Z,3.50
2023-01-11T14:43:23.890Z,5.25
2023-01-11T14:45:58.619Z,9.52
2023-01-11T14:48:30.990Z,5.25
2023-01-11T14:51:07.987Z,4.90
2023-01-11T14:53:38.216Z,7.32
2023-01-11T14:56:28.247Z,4.07
2023-01-11T14:59:02.585Z,4.45
2023-01-11T15:01:31.292Z,10.18
2023-01-11T15:04:00.920Z,11.23
2023-01-11T15:06:31.866Z,3.88
2023-01-11T15:09:00.489Z,5.93
2023-01-11T15:11:33.612Z,7.10
2023-01-11T15:14:02.571Z,5.95
2023-01-11T15:16:49.130Z,10.63
2023-01-11T15:19:25.866Z,6.03
2023-01-11T15:21:55.737Z,7.60
2023-01-11T15:24:25.690Z,5.30
2023-01-11T15:26:55.930Z,3.75
2023-01-11T15:29:24.743Z,5.33
2023-01-11T15:32:04.568Z,7.32
2023-01-11T15:34:42.294Z,7.53
2023-01-11T15:37:24.888Z,6.47
2023-01-11T15:39:53.063Z,7.75
2023-01-11T15:42:40.955Z,4.97
2023-01-11T15:45:25.613Z,7.72
2023-01-11T15:48:11.083Z,7.57
2023-01-11T15:50:54.888Z,8.80
2023-01-11T15:53:41.343Z,9.13
2023-01-11T15:56:21.931Z,4.93
2023-01-11T15:59:08.467Z,7.03
2023-01-11T16:01:41.135Z,5.50
2023-01-11T16:04:22.673Z,9.48
2023-01-11T16:06:54.049Z,5.53
2023-01-11T16:09:36.341Z,5.93
2023-01-11T16:12:11.150Z,11.27
2023-01-11T16:15:02.553Z,6.25
2023-01-11T16:17:31.714Z,9.32
2023-01-11T16:19:59.495Z,5.72
2023-01-11T16:22:29.234Z,10.20
2023-01-11T16:24:58.089Z,5.43
2023-01-11T16:27:27.993Z,7.85
2023-01-11T16:29:55.785Z,10.25
2023-01-11T16:32:27.004Z,7.78
2023-01-11T16:34:56.715Z,10.30
2023-01-11T16:37:26.891Z,12.45
2023-01-11T16:39:55.714Z,9.63
2023-01-11T16:42:23.546Z,9.77
2023-01-11T16:44:55.430Z,12.65
2023-01-11T16:47:23.368Z,14.20
2023-01-11T16:49:52.628Z,12.32
2023-01-11T16:52:38.797Z,5.80
2023-01-11T16:55:17.991Z,13.65
2023-01-11T16:57:54.205Z,10.07
2023-01-11T17:00:28.925Z,12.77
2023-01-11T17:03:05.707Z,15.55
2023-01-11T17:05:33.363Z,15.85
2023-01-11T17:08:04.895Z,14.82
2023-01-11T17:10:32.587Z,12.73
2023-01-11T17:13:37.157Z,10.80
2023-01-11T17:16:07.498Z,10.98
2023-01-11T17:18:35.201Z,11.77
2023-01-11T17:21:04.322Z,13.07
2023-01-11T17:23:33.335Z,8.32
2023-01-11T17:26:01.316Z,15.60
2023-01-11T17:28:30.013Z,12.50
2023-01-11T17:30:57.665Z,14.02
2023-01-11T17:33:27.257Z,14.93
2023-01-11T17:35:55.395Z,13.15
2023-01-11T17:38:23.789Z,19.37
2023-01-11T17:40:53.210Z,11.02
2023-01-11T17:43:40.153Z,11.77
2023-01-11T17:46:08.457Z,21.00
2023-01-11T17:48:36.152Z,15.45
2023-01-11T17:51:05.338Z,17.30
2023-01-11T17:53:33.923Z,19.50
2023-01-11T17:56:04.324Z,18.10
2023-01-11T17:58:33.720Z,23.33
2023-01-11T18:01:15.748Z,20.85
2023-01-11T18:03:44.399Z,24.50
2023-01-11T18:06:12.952Z,17.73
2023-01-11T18:08:41.102Z,23.42
2023-01-11T18:11:10.099Z,15.00
2023-01-11T18:13:37.765Z,25.55
2023-01-11T18:16:05.768Z,20.30
2023-01-11T18:18:43.747Z,16.17
2023-01-11T18:21:30.678Z,15.77
2023-01-11T18:24:14.321Z,27.77
2023-01-11T18:26:43.785Z,23.25
2023-01-11T18:29:36.822Z,14.50
2023-01-11T18:32:04.446Z,12.45
2023-01-11T18:34:32.504Z,22.02
2023-01-11T18:37:00.256Z,32.92
2023-01-11T18:39:28.034Z,16.70
2023-01-11T18:42:09.098Z,29.73
2023-01-11T18:44:36.727Z,27.90
2023-01-11T18:47:13.492Z,12.43
2023-01-11T18:49:41.779Z,33.03
2023-01-11T18:52:09.926Z,26.67
2023-01-11T18:54:37.918Z,17.40
2023-01-11T18:57:07.133Z,29.55
2023-01-11T18:59:34.674Z,30.77
2023-01-11T19:02:16.373Z,42.60
2023-01-11T19:04:45.428Z,40.05
2023-01-11T19:07:13.578Z,33.37
2023-01-11T19:09:41.451Z,35.90
2023-01-11T19:12:10.577Z,36.88
2023-01-11T19:14:38.158Z,29.23
2023-01-11T19:17:05.731Z,33.38
2023-01-11T19:19:33.362Z,27.17
2023-01-11T19:22:01.033Z,17.98
2023-01-11T19:24:31.296Z,24.38
2023-01-11T19:27:00.016Z,29.08
2023-01-11T19:29:29.813Z,21.65
2023-01-11T19:31:57.455Z,25.90
2023-01-11T19:34:25.185Z,19.45
2023-01-11T19:36:53.254Z,14.13
2023-01-11T19:39:20.975Z,18.55
2023-01-11T19:42:02.304Z,14.18
2023-01-11T19:44:32.850Z,12.93
2023-01-11T19:47:11.037Z,12.38
2023-01-11T19:49:40.744Z,14.43
2023-01-11T19:52:13.197Z,11.27
2023-01-11T19:54:42.083Z,12.02
2023-01-11T19:57:10.773Z,12.23
2023-01-11T19:59:39.930Z,10.90
2023-01-11T20:02:08.127Z,9.95
2023-01-11T20:04:35.650Z,9.32
2023-01-11T20:07:03.566Z,11.27
2023-01-11T20:09:31.169Z,10.87
2023-01-11T20:11:58.907Z,12.10
2023-01-11T20:14:26.906Z,14.77
2023-01-11T20:16:56.052Z,17.25
2023-01-11T20:19:23.750Z,10.93
2023-01-11T20:21:51.445Z,12.87
2023-01-11T20:24:19.059Z,16.85
2023-01-11T20:26:51.558Z,18.80
2023-01-11T20:29:19.185Z,14.73
2023-01-11T20:31:49.245Z,12.15
2023-01-11T20:34:18.501Z,15.67
2023-01-11T20:36:46.108Z,16.27
2023-01-11T20:39:14.315Z,13.40
2023-01-11T20:41:50.878Z,19.70
2023-01-11T20:44:19.462Z,17.27
2023-01-11T20:46:48.219Z,15.00
2023-01-11T20:49:16.223Z,12.45
2023-01-11T20:51:45.600Z,15.25
2023-01-11T20:54:13.285Z,20.90
2023-01-11T20:56:41.764Z,16.15
2023-01-11T20:59:14.194Z,12.43
2023-01-11T21:01:45.776Z,19.08
2023-01-11T21:04:14.302Z,16.85
2023-01-11T21:06:46.014Z,13.07
2023-01-11T21:09:16.113Z,11.10
2023-01-11T21:11:44.129Z,10.07
2023-01-11T21:14:13.013Z,11.98
2023-01-11T21:16:41.992Z,11.73
2023-01-11T21:19:12.276Z,11.45
2023-01-11T21:21:39.983Z,11.88
2023-01-11T21:24:08.294Z,11.87
2023-01-11T21:26:37.426Z,14.05
2023-01-11T21:29:06.290Z,13.43
2023-01-11T21:31:34.785Z,18.52
2023-01-11T21:34:06.023Z,14.52
2023-01-11T21:36:34.464Z,13.23
2023-01-11T21:39:02.565Z,12.23
2023-01-11T21:41:48.471Z,12.00
2023-01-11T21:44:18.634Z,10.98
2023-01-11T21:46:46.589Z,16.05
2023-01-11T21:49:14.906Z,12.10
2023-01-11T21:51:42.849Z,12.40
2023-01-11T21:54:11.405Z,12.75
2023-01-11T21:56:39.258Z,14.25
2023-01-11T21:59:06.758Z,13.65
2023-01-11T22:01:35.735Z,11.13
2023-01-11T22:04:06.179Z,8.02
2023-01-11T22:06:35.790Z,17.02
2023-01-11T22:09:03.890Z,15.43
2023-01-11T22:11:33.161Z,17.70
2023-01-11T22:14:03.226Z,12.17
2023-01-11T22:16:31.912Z,17.58
2023-01-11T22:19:01.407Z,9.75
2023-01-11T22:21:29.254Z,13.40
2023-01-11T22:23:57.849Z,16.83
2023-01-11T22:26:25.642Z,13.60
2023-01-11T22:29:11.329Z,13.73
2023-01-11T22:31:39.580Z,14.60
2023-01-11T22:34:09.304Z,13.77
2023-01-11T22:36:37.463Z,12.48
2023-01-11T22:39:05.383Z,9.33
2023-01-11T22:41:32.974Z,21.42
2023-01-11T22:44:00.695Z,11.38
2023-01-11T22:46:31.824Z,7.75
2023-01-11T22:48:59.780Z,13.48
2023-01-11T22:51:28.898Z,14.83
2023-01-11T22:53:56.635Z,17.30
2023-01-11T22:56:25.965Z,14.45
2023-01-11T22:58:53.998Z,13.23
2023-01-11T23:01:22.783Z,8.57
2023-01-11T23:03:50.419Z,11.57
2023-01-11T23:06:18.697Z,14.57
2023-01-11T23:08:47.742Z,9.27
2023-01-11T23:11:38.793Z,12.07
2023-01-11T23:14:06.379Z,18.88
2023-01-11T23:16:34.242Z,15.33
2023-01-11T23:19:03.086Z,12.27
2023-01-11T23:21:30.917Z,9.18
2023-01-11T23:24:01.150Z,12.38
2023-01-11T23:26:31.885Z,16.98
2023-01-11T23:28:59.476Z,19.33
2023-01-11T23:31:29.425Z,15.23
2023-01-11T23:33:59.707Z,12.35
2023-01-11T23:36:29.604Z,12.10
2023-01-11T23:38:57.363Z,11.55
2023-01-11T23:41:49.675Z,7.23
2023-01-11T23:44:18.269Z,8.43
2023-01-11T23:47:03.509Z,8.15
2023-01-11T23:49:31.683Z,6.20
2023-01-11T23:51:59.546Z,7.10
2023-01-11T23:54:28.171Z,6.50
2023-01-11T23:57:01.321Z,8.68
2023-01-11T23:59:29.740Z,11.85
